createdAt,value
2019-04-25T00:00:47.484Z,98319.17
2019-04-25T00:04:17.902Z,98315.13
2019-04-25T00:06:52.037Z,98326.13
2019-04-25T00:09:25.878Z,98327.81
2019-04-25T00:11:55.219Z,98327.27
2019-04-25T00:14:27.254Z,98328.57
2019-04-25T00:16:56.777Z,98332.86
2019-04-25T00:19:26.030Z,98334.27
2019-04-25T00:21:57.053Z,98334.18
2019-04-25T00:24:28.085Z,98329.86
2019-04-25T00:26:57.260Z,98320.28
2019-04-25T00:29:26.576Z,98322.33
2019-04-25T00:31:56.646Z,98320.46
2019-04-25T00:34:26.995Z,98328.42
2019-04-25T00:36:56.320Z,98328.42
2019-04-25T00:39:25.917Z,98332.50
2019-04-25T00:41:55.317Z,98337.30
2019-04-25T00:44:25.994Z,98343.92
2019-04-25T00:46:56.819Z,98336.20
2019-04-25T00:49:26.245Z,98341.59
2019-04-25T00:51:55.564Z,98345.15
2019-04-25T00:54:33.819Z,98351.89
2019-04-25T00:58:06.896Z,98351.03
2019-04-25T01:00:41.562Z,98348.09
2019-04-25T01:03:12.715Z,98348.39
2019-04-25T01:05:42.490Z,98347.59
2019-04-25T01:08:13.094Z,98343.83
2019-04-25T01:10:42.310Z,98345.18
2019-04-25T01:13:11.693Z,98341.84
2019-04-25T01:15:42.454Z,98340.83
2019-04-25T01:18:12.331Z,98348.27
2019-04-25T01:20:43.342Z,98343.25
2019-04-25T01:23:13.757Z,98338.05
2019-04-25T01:25:44.721Z,98345.86
2019-04-25T01:28:14.371Z,98347.91
2019-04-25T01:30:43.926Z,98345.55
2019-04-25T01:33:13.583Z,98343.00
2019-04-25T01:35:47.435Z,98342.15
2019-04-25T01:38:21.316Z,98346.89
2019-04-25T01:40:54.445Z,98336.60
2019-04-25T01:43:29.264Z,98336.97
2019-04-25T01:46:00.167Z,98336.27
2019-04-25T01:48:30.345Z,98339.39
2019-04-25T01:50:59.618Z,98345.30
2019-04-25T01:53:28.845Z,98339.55
2019-04-25T01:56:04.040Z,98335.75
2019-04-25T01:58:31.299Z,98342.63
2019-04-25T02:01:00.564Z,98336.33
2019-04-25T02:03:30.004Z,98335.41
2019-04-25T02:05:59.401Z,98336.84
2019-04-25T02:08:28.630Z,98346.84
2019-04-25T02:11:43.968Z,98353.02
2019-04-25T02:14:13.753Z,98355.16
2019-04-25T02:16:43.951Z,98355.11
2019-04-25T02:19:14.540Z,98357.61
2019-04-25T02:21:45.375Z,98345.34
2019-04-25T02:24:14.602Z,98349.87
2019-04-25T02:26:43.909Z,98356.11
2019-04-25T02:29:13.632Z,98350.42
2019-04-25T02:31:45.062Z,98352.86
2019-04-25T02:34:17.782Z,98356.19
2019-04-25T02:36:46.981Z,98365.23
2019-04-25T02:39:17.767Z,98371.97
2019-04-25T02:41:47.018Z,98361.91
2019-04-25T02:44:16.153Z,98358.16
2019-04-25T02:47:06.472Z,98361.05
2019-04-25T02:49:41.984Z,98356.25
2019-04-25T02:52:18.793Z,98366.24
2019-04-25T02:54:49.892Z,98357.30
2019-04-25T02:57:19.282Z,98359.66
2019-04-25T02:59:50.504Z,98351.28
2019-04-25T03:02:20.030Z,98361.56
2019-04-25T03:04:49.235Z,98362.77
2019-04-25T03:07:18.620Z,98371.70
2019-04-25T03:09:47.878Z,98372.67
2019-04-25T03:12:29.839Z,98369.42
2019-04-25T03:14:48.098Z,98370.21
2019-04-25T03:17:17.548Z,98370.84
2019-04-25T03:19:54.220Z,98377.58
2019-04-25T03:22:26.703Z,98388.69
2019-04-25T03:24:59.685Z,98391.91
2019-04-25T03:27:28.862Z,98385.24
2019-04-25T03:29:58.969Z,98371.11
2019-04-25T03:32:29.839Z,98376.64
2019-04-25T03:34:59.083Z,98369.00
2019-04-25T03:37:28.373Z,98378.98
2019-04-25T03:39:57.724Z,98367.05
2019-04-25T03:42:28.504Z,98376.20
2019-04-25T03:44:58.636Z,98369.47
2019-04-25T03:47:27.866Z,98370.18
2019-04-25T03:49:57.349Z,98371.72
2019-04-25T03:52:26.654Z,98373.68
2019-04-25T03:54:56.854Z,98375.47
2019-04-25T03:57:26.302Z,98366.59
2019-04-25T03:59:55.550Z,98366.80
2019-04-25T04:02:25.264Z,98366.01
2019-04-25T04:04:54.766Z,98366.90
2019-04-25T04:07:24.493Z,98367.97
2019-04-25T04:09:55.101Z,98367.67
2019-04-25T04:12:25.129Z,98366.56
2019-04-25T04:14:56.291Z,98374.23
2019-04-25T04:17:27.627Z,98368.16
2019-04-25T04:20:03.820Z,98364.70
2019-04-25T04:22:53.304Z,98366.75
2019-04-25T04:25:23.822Z,98363.19
2019-04-25T04:27:53.846Z,98362.28
2019-04-25T04:30:24.138Z,98365.46
2019-04-25T04:32:55.047Z,98364.81
2019-04-25T04:35:25.470Z,98364.33
2019-04-25T04:37:55.543Z,98363.69
2019-04-25T04:40:25.400Z,98368.98
2019-04-25T04:42:55.422Z,98378.84
2019-04-25T04:45:25.367Z,98385.28
2019-04-25T04:47:55.233Z,98382.73
2019-04-25T04:50:25.390Z,98385.92
2019-04-25T04:52:56.459Z,98384.36
2019-04-25T04:55:26.316Z,98376.82
2019-04-25T04:57:56.236Z,98378.11
2019-04-25T05:00:27.473Z,98388.48
2019-04-25T05:02:59.037Z,98394.21
2019-04-25T05:05:30.748Z,98399.69
2019-04-25T05:08:03.787Z,98396.28
2019-04-25T05:10:34.234Z,98405.47
2019-04-25T05:13:04.366Z,98405.23
2019-04-25T05:15:34.568Z,98407.03
2019-04-25T05:18:04.251Z,98412.89
2019-04-25T05:20:35.635Z,98399.69
2019-04-25T05:23:05.640Z,98405.15
2019-04-25T05:25:35.737Z,98412.11
2019-04-25T05:28:06.058Z,98407.45
2019-04-25T05:30:37.420Z,98414.28
2019-04-25T05:33:07.402Z,98417.20
2019-04-25T05:35:38.678Z,98425.84
2019-04-25T05:38:09.235Z,98437.35
2019-04-25T05:40:50.565Z,98424.90
2019-04-25T05:43:21.053Z,98434.36
2019-04-25T05:45:51.049Z,98436.04
2019-04-25T05:48:21.156Z,98445.25
2019-04-25T05:50:51.635Z,98451.41
2019-04-25T05:53:22.410Z,98460.98
2019-04-25T05:55:54.077Z,98457.30
2019-04-25T05:58:25.707Z,98462.32
2019-04-25T06:00:59.217Z,98460.18
2019-04-25T06:03:29.295Z,98454.48
2019-04-25T06:05:59.295Z,98454.22
2019-04-25T06:08:31.012Z,98454.64
2019-04-25T06:11:05.760Z,98461.41
2019-04-25T06:13:39.011Z,98466.21
2019-04-25T06:16:10.911Z,98457.29
2019-04-25T06:18:43.878Z,98463.62
2019-04-25T06:21:14.926Z,98440.27
2019-04-25T06:24:04.351Z,98441.48
2019-04-25T06:26:39.718Z,98440.81
2019-04-25T06:29:07.959Z,98445.34
2019-04-25T06:31:37.796Z,98450.12
2019-04-25T06:34:09.004Z,98449.17
2019-04-25T06:36:39.229Z,98444.16
2019-04-25T06:39:09.796Z,98446.71
2019-04-25T06:41:41.245Z,98440.80
2019-04-25T06:44:13.670Z,98442.02
2019-04-25T06:46:50.398Z,98441.31
2019-04-25T06:49:25.509Z,98443.03
2019-04-25T06:51:57.617Z,98439.48
2019-04-25T06:54:29.542Z,98440.34
2019-04-25T06:56:59.679Z,98445.58
2019-04-25T06:59:34.419Z,98444.75
2019-04-25T07:02:05.439Z,98442.41
2019-04-25T07:04:35.809Z,98439.67
2019-04-25T07:07:12.091Z,98440.89
2019-04-25T07:09:37.929Z,98440.73
2019-04-25T07:12:07.863Z,98442.92
2019-04-25T07:14:37.969Z,98444.80
2019-04-25T07:17:08.202Z,98438.02
2019-04-25T07:19:38.582Z,98440.73
2019-04-25T07:22:09.589Z,98445.16
2019-04-25T07:24:39.870Z,98437.53
2019-04-25T07:27:30.489Z,98439.23
2019-04-25T07:30:26.706Z,98442.45
2019-04-25T07:32:47.768Z,98448.41
2019-04-25T07:35:17.820Z,98442.80
2019-04-25T07:37:48.085Z,98443.50
2019-04-25T07:40:17.961Z,98435.67
2019-04-25T07:42:47.736Z,98441.78
2019-04-25T07:45:19.944Z,98431.61
2019-04-25T07:47:49.753Z,98429.11
2019-04-25T07:50:20.003Z,98430.13
2019-04-25T07:52:50.388Z,98435.23
2019-04-25T07:55:23.671Z,98418.96
2019-04-25T07:57:54.321Z,98419.78
2019-04-25T08:00:27.272Z,98415.22
2019-04-25T08:02:59.774Z,98423.36
2019-04-25T08:05:30.238Z,98415.22
2019-04-25T08:08:00.885Z,98421.83
2019-04-25T08:10:34.713Z,98424.01
2019-04-25T08:13:05.176Z,98423.19
2019-04-25T08:15:46.085Z,98419.75
2019-04-25T08:18:16.280Z,98425.16
2019-04-25T08:20:47.472Z,98419.20
2019-04-25T08:23:20.267Z,98419.95
2019-04-25T08:25:50.820Z,98416.63
2019-04-25T08:28:21.538Z,98419.97
2019-04-25T08:30:54.836Z,98411.03
2019-04-25T08:33:24.310Z,98404.08
2019-04-25T08:36:04.538Z,98403.77
2019-04-25T08:38:26.880Z,98406.63
2019-04-25T08:40:56.949Z,98405.98
2019-04-25T08:43:27.523Z,98409.58
2019-04-25T08:45:57.747Z,98407.87
2019-04-25T08:48:29.015Z,98421.46
2019-04-25T08:51:03.747Z,98427.64
2019-04-25T08:53:36.581Z,98431.56
2019-04-25T08:56:14.980Z,98431.27
2019-04-25T08:59:03.878Z,98447.22
2019-04-25T09:01:29.480Z,98449.95
2019-04-25T09:04:03.605Z,98444.38
2019-04-25T09:06:35.060Z,98453.20
2019-04-25T09:09:07.215Z,98449.62
2019-04-25T09:11:38.894Z,98440.78
2019-04-25T09:14:10.212Z,98447.19
2019-04-25T09:16:41.768Z,98440.87
2019-04-25T09:19:14.251Z,98432.83
2019-04-25T09:21:49.347Z,98413.77
2019-04-25T09:24:19.643Z,98429.69
2019-04-25T09:26:49.668Z,98410.95
2019-04-25T09:29:20.917Z,98397.23
2019-04-25T09:31:51.556Z,98380.95
2019-04-25T09:34:23.693Z,98420.89
2019-04-25T09:36:54.370Z,98445.02
2019-04-25T09:39:35.699Z,98460.72
2019-04-25T09:42:09.242Z,98459.81
2019-04-25T09:44:46.998Z,98451.12
2019-04-25T09:47:17.129Z,98440.63
2019-04-25T09:49:48.937Z,98453.00
2019-04-25T09:52:21.030Z,98448.74
2019-04-25T09:54:55.340Z,98441.58
2019-04-25T09:57:33.287Z,98439.66
2019-04-25T10:00:08.908Z,98422.33
2019-04-25T10:02:40.226Z,98422.53
2019-04-25T10:05:10.783Z,98408.73
2019-04-25T10:07:43.240Z,98413.23
2019-04-25T10:10:13.543Z,98396.61
2019-04-25T10:12:44.327Z,98387.22
2019-04-25T10:15:37.539Z,98387.42
2019-04-25T10:18:10.311Z,98384.64
2019-04-25T10:20:41.179Z,98374.15
2019-04-25T10:23:13.629Z,98381.97
2019-04-25T10:25:45.020Z,98386.11
2019-04-25T10:28:15.554Z,98390.65
2019-04-25T10:30:45.770Z,98390.77
2019-04-25T10:33:16.477Z,98396.37
2019-04-25T10:35:53.129Z,98389.69
2019-04-25T10:38:18.481Z,98389.09
2019-04-25T10:40:50.267Z,98390.46
2019-04-25T10:43:21.822Z,98379.23
2019-04-25T10:45:53.396Z,98371.00
2019-04-25T10:48:24.204Z,98379.64
2019-04-25T10:50:55.655Z,98378.39
2019-04-25T10:53:26.442Z,98378.02
2019-04-25T10:55:58.787Z,98379.33
2019-04-25T10:58:29.856Z,98382.96
2019-04-25T11:01:00.602Z,98369.57
2019-04-25T11:03:45.462Z,98366.47
2019-04-25T11:06:18.113Z,98376.36
2019-04-25T11:08:49.133Z,98388.02
2019-04-25T11:11:21.641Z,98395.95
2019-04-25T11:13:52.506Z,98403.23
2019-04-25T11:16:24.260Z,98412.58
2019-04-25T11:18:55.144Z,98430.05
2019-04-25T11:21:27.610Z,98443.41
2019-04-25T11:23:56.525Z,98447.33
2019-04-25T11:26:27.087Z,98434.14
2019-04-25T11:28:58.581Z,98430.00
2019-04-25T11:31:30.629Z,98433.30
2019-04-25T11:34:01.349Z,98428.95
2019-04-25T11:36:31.932Z,98413.55
2019-04-25T11:39:07.855Z,98420.97
2019-04-25T11:41:38.426Z,98408.98
2019-04-25T11:44:08.918Z,98396.66
2019-04-25T11:46:39.485Z,98391.71
2019-04-25T11:49:10.181Z,98397.39
2019-04-25T11:51:40.283Z,98368.43
2019-04-25T11:54:11.551Z,98382.36
2019-04-25T11:56:43.247Z,98388.92
2019-04-25T11:59:13.738Z,98394.48
2019-04-25T12:01:47.771Z,98392.22
2019-04-25T12:04:17.901Z,98386.69
2019-04-25T12:06:48.364Z,98385.92
2019-04-25T12:09:19.524Z,98389.32
2019-04-25T12:11:50.257Z,98385.86
2019-04-25T12:14:20.645Z,98377.30
2019-04-25T12:16:53.210Z,98386.97
2019-04-25T12:19:34.482Z,98385.75
2019-04-25T12:21:58.187Z,98393.33
2019-04-25T12:24:28.464Z,98396.11
2019-04-25T12:26:58.806Z,98414.29
2019-04-25T12:29:29.319Z,98419.40
2019-04-25T12:32:00.074Z,98412.22
2019-04-25T12:34:30.599Z,98414.36
2019-04-25T12:37:01.066Z,98421.92
2019-04-25T12:39:31.923Z,98403.83
2019-04-25T12:42:02.002Z,98403.54
2019-04-25T12:44:49.698Z,98391.56
2019-04-25T12:47:21.867Z,98381.30
2019-04-25T12:49:51.554Z,98398.33
2019-04-25T12:52:24.405Z,98405.20
2019-04-25T12:54:57.223Z,98404.24
2019-04-25T12:57:27.757Z,98410.28
2019-04-25T12:59:58.140Z,98415.50
2019-04-25T13:02:28.966Z,98415.97
2019-04-25T13:04:59.782Z,98436.16
2019-04-25T13:07:30.190Z,98427.16
2019-04-25T13:10:00.645Z,98433.23
2019-04-25T13:12:31.248Z,98438.78
2019-04-25T13:15:01.839Z,98435.27
2019-04-25T13:17:33.721Z,98435.98
2019-04-25T13:20:07.559Z,98426.16
2019-04-25T13:22:38.401Z,98454.56
2019-04-25T13:25:09.181Z,98446.39
2019-04-25T13:27:39.123Z,98440.85
2019-04-25T13:30:11.583Z,98463.53
2019-04-25T13:32:59.910Z,98478.50
2019-04-25T13:35:47.326Z,98466.58
2019-04-25T13:38:18.031Z,98483.59
2019-04-25T13:40:48.091Z,98480.14
2019-04-25T13:43:18.581Z,98490.02
2019-04-25T13:45:48.913Z,98470.69
2019-04-25T13:48:19.474Z,98466.00
2019-04-25T13:50:51.317Z,98485.48
2019-04-25T13:53:23.281Z,98493.36
2019-04-25T13:55:54.221Z,98495.59
2019-04-25T13:58:25.508Z,98505.08
2019-04-25T14:00:56.083Z,98516.06
2019-04-25T14:03:30.050Z,98502.45
2019-04-25T14:06:00.001Z,98495.51
2019-04-25T14:08:29.989Z,98494.31
2019-04-25T14:11:01.295Z,98499.80
2019-04-25T14:13:31.323Z,98497.90
2019-04-25T14:16:03.983Z,98503.67
2019-04-25T14:18:41.337Z,98502.88
2019-04-25T14:21:16.353Z,98493.83
2019-04-25T14:23:46.513Z,98500.50
2019-04-25T14:26:17.287Z,98501.57
2019-04-25T14:28:47.375Z,98515.19
2019-04-25T14:31:35.352Z,98512.16
2019-04-25T14:33:51.782Z,98513.41
2019-04-25T14:36:24.696Z,98523.24
2019-04-25T14:38:54.442Z,98534.12
2019-04-25T14:41:24.465Z,98531.58
2019-04-25T14:43:54.244Z,98542.77
2019-04-25T14:46:26.530Z,98536.65
2019-04-25T14:48:57.463Z,98541.70
2019-04-25T14:51:28.138Z,98539.69
2019-04-25T14:53:59.312Z,98542.39
2019-04-25T14:56:36.515Z,98544.00
2019-04-25T14:59:07.205Z,98541.81
2019-04-25T15:01:44.529Z,98534.84
2019-04-25T15:04:08.649Z,98542.18
2019-04-25T15:06:38.232Z,98543.03
2019-04-25T15:09:08.221Z,98546.27
2019-04-25T15:11:38.098Z,98568.80
2019-04-25T15:14:07.939Z,98570.08
2019-04-25T15:16:37.756Z,98578.52
2019-04-25T15:19:08.245Z,98570.73
2019-04-25T15:21:37.969Z,98566.31
2019-04-25T15:24:07.807Z,98576.69
2019-04-25T15:26:40.257Z,98575.33
2019-04-25T15:29:09.450Z,98577.03
2019-04-25T15:31:39.482Z,98578.25
2019-04-25T15:34:09.749Z,98578.98
2019-04-25T15:36:41.433Z,98578.33
2019-04-25T15:39:12.810Z,98586.80
2019-04-25T15:41:47.319Z,98586.98
2019-04-25T15:44:39.251Z,98601.22
2019-04-25T15:47:10.729Z,98610.47
2019-04-25T15:49:40.782Z,98618.59
2019-04-25T15:52:12.962Z,98628.09
2019-04-25T15:54:42.879Z,98626.58
2019-04-25T15:57:12.755Z,98618.98
2019-04-25T15:59:42.577Z,98637.13
2019-04-25T16:02:13.929Z,98637.13
2019-04-25T16:04:43.948Z,98641.72
2019-04-25T16:07:14.302Z,98636.67
2019-04-25T16:09:44.126Z,98631.77
2019-04-25T16:12:15.384Z,98622.59
2019-04-25T16:14:45.022Z,98625.16
2019-04-25T16:17:14.707Z,98632.14
2019-04-25T16:19:45.176Z,98632.98
2019-04-25T16:22:14.908Z,98626.05
2019-04-25T16:24:44.763Z,98637.06
2019-04-25T16:27:14.592Z,98637.06
2019-04-25T16:29:44.426Z,98634.72
2019-04-25T16:32:20.604Z,98644.21
2019-04-25T16:34:48.592Z,98651.69
2019-04-25T16:37:18.618Z,98667.80
2019-04-25T16:39:48.238Z,98662.16
2019-04-25T16:42:17.922Z,98669.08
2019-04-25T16:44:48.808Z,98669.59
2019-04-25T16:47:20.224Z,98665.67
2019-04-25T16:49:50.055Z,98671.41
2019-04-25T16:52:21.547Z,98668.69
2019-04-25T16:54:52.172Z,98661.72
2019-04-25T16:57:22.314Z,98677.82
2019-04-25T16:59:52.087Z,98665.78
2019-04-25T17:02:32.396Z,98681.20
2019-04-25T17:04:54.968Z,98674.16
2019-04-25T17:07:24.977Z,98679.67
2019-04-25T17:09:54.549Z,98678.62
2019-04-25T17:12:24.347Z,98679.12
2019-04-25T17:14:55.939Z,98685.20
2019-04-25T17:17:27.219Z,98686.20
2019-04-25T17:20:13.141Z,98693.02
2019-04-25T17:22:43.988Z,98697.02
2019-04-25T17:25:14.027Z,98688.86
2019-04-25T17:27:43.840Z,98682.37
2019-04-25T17:30:14.395Z,98677.09
2019-04-25T17:32:53.865Z,98665.27
2019-04-25T17:35:34.144Z,98672.23
2019-04-25T17:38:19.403Z,98668.83
2019-04-25T17:40:48.724Z,98661.59
2019-04-25T17:43:18.347Z,98664.47
2019-04-25T17:45:48.093Z,98671.88
2019-04-25T17:48:17.766Z,98661.99
2019-04-25T17:50:47.608Z,98667.24
2019-04-25T17:53:17.381Z,98667.45
2019-04-25T17:55:46.935Z,98671.18
2019-04-25T17:58:16.668Z,98669.86
2019-04-25T18:00:48.715Z,98658.73
2019-04-25T18:03:20.167Z,98666.19
2019-04-25T18:05:50.055Z,98658.73
2019-04-25T18:08:23.719Z,98658.98
2019-04-25T18:10:55.110Z,98659.28
2019-04-25T18:13:24.621Z,98661.15
2019-04-25T18:16:03.614Z,98659.84
2019-04-25T18:18:41.435Z,98637.48
2019-04-25T18:21:11.205Z,98646.34
2019-04-25T18:23:54.492Z,98643.34
2019-04-25T18:26:31.501Z,98650.34
2019-04-25T18:29:02.747Z,98641.25
2019-04-25T18:31:32.517Z,98626.04
2019-04-25T18:34:03.959Z,98624.23
2019-04-25T18:36:36.088Z,98627.80
2019-04-25T18:39:08.201Z,98618.82
2019-04-25T18:41:43.907Z,98633.22
2019-04-25T18:44:14.866Z,98650.55
2019-04-25T18:46:45.829Z,98659.12
2019-04-25T18:49:15.384Z,98669.11
2019-04-25T18:51:56.419Z,98674.69
2019-04-25T18:54:27.100Z,98685.51
2019-04-25T18:56:58.024Z,98684.22
2019-04-25T18:59:44.618Z,98707.31
2019-04-25T19:02:21.266Z,98711.42
2019-04-25T19:04:52.163Z,98702.80
2019-04-25T19:07:22.808Z,98681.13
2019-04-25T19:09:52.260Z,98679.84
2019-04-25T19:12:21.601Z,98676.77
2019-04-25T19:14:51.728Z,98665.17
2019-04-25T19:17:22.123Z,98667.76
2019-04-25T19:19:51.984Z,98670.69
2019-04-25T19:22:21.588Z,98673.85
2019-04-25T19:24:50.856Z,98664.39
2019-04-25T19:27:23.902Z,98653.27
2019-04-25T19:29:53.524Z,98661.55
2019-04-25T19:32:22.989Z,98653.55
2019-04-25T19:34:52.249Z,98659.58
2019-04-25T19:37:21.564Z,98714.84
2019-04-25T19:40:08.481Z,98727.88
2019-04-25T19:42:44.799Z,98738.76
2019-04-25T19:45:15.350Z,98755.43
2019-04-25T19:47:45.055Z,98753.28
2019-04-25T19:50:14.494Z,98760.91
2019-04-25T19:52:43.890Z,98766.86
2019-04-25T19:55:13.355Z,98769.01
2019-04-25T19:57:43.761Z,98771.87
2019-04-25T20:00:13.110Z,98786.95
2019-04-25T20:02:44.566Z,98786.59
2019-04-25T20:05:15.473Z,98787.66
2019-04-25T20:07:48.182Z,98802.34
2019-04-25T20:10:19.626Z,98809.97
2019-04-25T20:12:52.110Z,98810.19
2019-04-25T20:15:21.572Z,98814.25
2019-04-25T20:17:51.873Z,98816.90
2019-04-25T20:20:21.710Z,98814.84
2019-04-25T20:22:50.903Z,98823.60
2019-04-25T20:25:20.137Z,98828.42
2019-04-25T20:27:49.373Z,98826.48
2019-04-25T20:30:18.854Z,98821.94
2019-04-25T20:32:49.207Z,98817.88
2019-04-25T20:35:18.522Z,98800.45
2019-04-25T20:37:47.740Z,98786.61
2019-04-25T20:40:16.935Z,98782.05
2019-04-25T20:42:48.686Z,98786.39
2019-04-25T20:45:18.174Z,98769.61
2019-04-25T20:47:47.932Z,98749.64
2019-04-25T20:50:17.500Z,98744.12
2019-04-25T20:52:47.407Z,98735.95
2019-04-25T20:55:17.335Z,98722.20
2019-04-25T20:57:48.404Z,98720.97
2019-04-25T21:00:44.395Z,98720.24
2019-04-25T21:03:13.671Z,98724.42
2019-04-25T21:05:43.775Z,98731.73
2019-04-25T21:08:13.014Z,98729.44
2019-04-25T21:10:42.390Z,98735.87
2019-04-25T21:13:13.312Z,98726.14
2019-04-25T21:15:50.741Z,98720.36
2019-04-25T21:18:30.591Z,98720.98
2019-04-25T21:21:01.296Z,98736.77
2019-04-25T21:23:31.435Z,98730.97
2019-04-25T21:26:01.238Z,98736.01
2019-04-25T21:28:30.446Z,98754.81
2019-04-25T21:31:02.005Z,98767.31
2019-04-25T21:33:30.712Z,98772.66
2019-04-25T21:36:00.152Z,98781.06
2019-04-25T21:38:31.488Z,98800.81
2019-04-25T21:41:02.685Z,98815.74
2019-04-25T21:43:33.727Z,98813.91
2019-04-25T21:46:04.423Z,98815.96
2019-04-25T21:48:34.150Z,98820.95
2019-04-25T21:51:05.297Z,98817.38
2019-04-25T21:53:34.605Z,98805.44
2019-04-25T21:56:04.127Z,98803.44
2019-04-25T21:58:33.471Z,98802.30
2019-04-25T22:01:04.697Z,98795.27
2019-04-25T22:03:34.140Z,98791.98
2019-04-25T22:06:05.122Z,98782.70
2019-04-25T22:08:35.542Z,98789.13
2019-04-25T22:11:05.538Z,98793.61
2019-04-25T22:13:35.350Z,98805.92
2019-04-25T22:16:05.870Z,98800.36
2019-04-25T22:18:35.642Z,98793.67
2019-04-25T22:21:05.191Z,98787.13
2019-04-25T22:23:35.531Z,98783.13
2019-04-25T22:26:05.139Z,98783.78
2019-04-25T22:28:35.739Z,98771.95
2019-04-25T22:31:07.599Z,98760.16
2019-04-25T22:33:38.832Z,98755.57
2019-04-25T22:36:15.484Z,98751.61
2019-04-25T22:38:46.753Z,98744.52
2019-04-25T22:41:16.124Z,98761.16
2019-04-25T22:43:47.402Z,98766.23
2019-04-25T22:46:25.799Z,98769.28
2019-04-25T22:48:48.280Z,98775.05
2019-04-25T22:51:17.696Z,98779.05
2019-04-25T22:53:47.726Z,98795.97
2019-04-25T22:56:17.091Z,98802.27
2019-04-25T22:58:46.361Z,98801.62
2019-04-25T23:01:23.253Z,98798.28
2019-04-25T23:03:54.094Z,98801.60
2019-04-25T23:06:23.631Z,98807.31
2019-04-25T23:08:52.881Z,98804.77
2019-04-25T23:11:22.113Z,98812.66
2019-04-25T23:13:51.534Z,98818.84
2019-04-25T23:16:21.036Z,98826.42
2019-04-25T23:18:50.259Z,98838.81
2019-04-25T23:21:19.530Z,98833.77
2019-04-25T23:23:48.784Z,98828.22
2019-04-25T23:26:26.103Z,98815.83
2019-04-25T23:28:59.766Z,98804.95
2019-04-25T23:31:33.559Z,98815.98
2019-04-25T23:34:04.508Z,98819.82
2019-04-25T23:36:34.434Z,98814.99
2019-04-25T23:39:07.251Z,98802.48
2019-04-25T23:41:36.726Z,98800.12
2019-04-25T23:44:07.008Z,98804.27
2019-04-25T23:46:37.085Z,98806.20
2019-04-25T23:49:07.898Z,98818.26
2019-04-25T23:51:37.535Z,98826.15
2019-04-25T23:54:07.596Z,98827.20
2019-04-25T23:56:37.084Z,98828.28
2019-04-25T23:59:08.308Z,98844.00
